Time;durP1;ratioP1;P1;durP2;ratioP2;P2;SDS_P1;SDS_P2;PMS_P1;PMS_P2;Temp;Humidity;BMP_temperature;BMP_pressure;BME280_temperature;BME280_humidity;BME280_pressure;Samples;Min_cycle;Max_cycle;Signal;HPM_P1;HPM_P2
2023/08/26 00:00:24;;;;;;;4.38;1.80;;;;;;;;;;5044764;28;20228;-71
2023/08/26 00:02:49;;;;;;;7.50;1.80;;;;;;;;;;5041841;28;20041;-80
2023/08/26 00:05:14;;;;;;;5.55;1.90;;;;;;;;;;5037375;28;20029;-76
2023/08/26 00:07:40;;;;;;;5.88;1.83;;;;;;;;;;5036979;28;20036;-73
2023/08/26 00:10:06;;;;;;;3.10;1.70;;;;;;;;;;5036051;28;20742;-74
2023/08/26 00:12:31;;;;;;;3.78;1.63;;;;;;;;;;5036148;28;20041;-78
2023/08/26 00:14:56;;;;;;;3.60;1.92;;;;;;;;;;5039335;28;20087;-78
2023/08/26 00:17:22;;;;;;;4.43;1.85;;;;;;;;;;5040255;28;20029;-73
2023/08/26 00:19:47;;;;;;;7.78;2.17;;;;;;;;;;5038171;28;20228;-73
2023/08/26 00:22:13;;;;;;;5.68;1.60;;;;;;;;;;5036313;28;20051;-73
2023/08/26 00:24:38;;;;;;;4.47;1.80;;;;;;;;;;5032239;28;20024;-75
2023/08/26 00:27:04;;;;;;;6.97;2.00;;;;;;;;;;5037474;28;20037;-73
2023/08/26 00:29:30;;;;;;;4.03;1.48;;;;;;;;;;5034863;28;20032;-73
2023/08/26 00:31:55;;;;;;;3.28;1.60;;;;;;;;;;5032537;28;20037;-73
2023/08/26 00:34:20;;;;;;;6.25;1.70;;;;;;;;;;5034794;28;20501;-72
2023/08/26 00:36:46;;;;;;;4.28;1.65;;;;;;;;;;5029310;28;20036;-72
2023/08/26 00:39:11;;;;;;;3.58;1.60;;;;;;;;;;5028003;28;20036;-73
2023/08/26 00:41:36;;;;;;;4.63;1.70;;;;;;;;;;5024927;28;20044;-74
2023/08/26 00:44:02;;;;;;;6.75;1.80;;;;;;;;;;5027915;28;20059;-71
2023/08/26 00:46:29;;;;;;;5.03;1.80;;;;;;;;;;5028524;28;20025;-70
2023/08/26 00:48:54;;;;;;;6.50;1.88;;;;;;;;;;5032215;28;20053;-73
2023/08/26 00:51:20;;;;;;;4.07;1.70;;;;;;;;;;5025413;28;20093;-73
2023/08/26 00:53:47;;;;;;;3.10;1.88;;;;;;;;;;5035971;28;20032;-74
2023/08/26 00:56:13;;;;;;;4.07;1.60;;;;;;;;;;5031338;28;20025;-74
2023/08/26 00:58:39;;;;;;;4.32;1.60;;;;;;;;;;5038699;28;20021;-74
2023/08/26 01:01:05;;;;;;;4.90;1.63;;;;;;;;;;5038955;28;20021;-75
2023/08/26 01:03:30;;;;;;;3.05;1.48;;;;;;;;;;5037717;28;20230;-76
2023/08/26 01:05:56;;;;;;;5.22;1.70;;;;;;;;;;5039574;28;20052;-74
2023/08/26 01:08:21;;;;;;;6.13;1.80;;;;;;;;;;5038599;28;20075;-83
2023/08/26 01:11:08;;;;;;;4.57;1.75;;;;;;;;;;5036516;28;20033;-73
2023/08/26 01:14:07;;;;;;;5.03;1.75;;;;;;;;;;5039938;28;20084;-73
2023/08/26 01:16:34;;;;;;;4.68;1.67;;;;;;;;;;5035768;28;20108;-74
2023/08/26 01:19:01;;;;;;;3.85;1.42;;;;;;;;;;5033040;28;20029;-74
2023/08/26 01:21:37;;;;;;;5.82;1.60;;;;;;;;;;5034411;28;20048;-75
2023/08/26 01:24:04;;;;;;;2.85;1.60;;;;;;;;;;5035974;28;20029;-84
2023/08/26 01:26:30;;;;;;;5.22;1.80;;;;;;;;;;5030356;28;20032;-74
2023/08/26 01:28:55;;;;;;;6.38;1.83;;;;;;;;;;5039017;28;20237;-74
2023/08/26 01:31:22;;;;;;;5.35;1.60;;;;;;;;;;5036880;28;20385;-75
2023/08/26 01:33:54;;;;;;;3.83;1.60;;;;;;;;;;5035551;28;20088;-74
2023/08/26 01:36:23;;;;;;;5.85;1.65;;;;;;;;;;5037961;28;20214;-82
2023/08/26 01:38:50;;;;;;;4.13;1.63;;;;;;;;;;5038360;28;20022;-75
2023/08/26 01:41:18;;;;;;;4.40;1.70;;;;;;;;;;5036208;28;20026;-81
2023/08/26 01:43:45;;;;;;;3.65;1.50;;;;;;;;;;5039899;28;20026;-74
2023/08/26 01:46:11;;;;;;;4.28;1.70;;;;;;;;;;5038446;28;20065;-83
2023/08/26 01:48:36;;;;;;;3.28;1.52;;;;;;;;;;5037305;28;20036;-74
2023/08/26 01:51:02;;;;;;;5.75;1.70;;;;;;;;;;5028320;28;20037;-75
2023/08/26 01:53:27;;;;;;;3.47;1.75;;;;;;;;;;5037292;28;20033;-78
2023/08/26 01:55:52;;;;;;;6.22;1.80;;;;;;;;;;5038506;28;20044;-75
2023/08/26 01:58:18;;;;;;;5.13;1.50;;;;;;;;;;5038801;28;20026;-75
2023/08/26 02:00:43;;;;;;;3.78;1.42;;;;;;;;;;5042042;28;20111;-76
2023/08/26 02:03:08;;;;;;;2.70;1.40;;;;;;;;;;5042633;28;20420;-74
2023/08/26 02:05:34;;;;;;;4.03;1.42;;;;;;;;;;5041607;28;20033;-78
2023/08/26 02:07:59;;;;;;;3.80;1.48;;;;;;;;;;5043411;28;20021;-74
2023/08/26 02:10:24;;;;;;;4.25;1.70;;;;;;;;;;5043470;28;20028;-74
2023/08/26 02:12:50;;;;;;;4.55;1.70;;;;;;;;;;5043404;28;20032;-74
2023/08/26 02:15:15;;;;;;;6.05;1.90;;;;;;;;;;5032412;28;20245;-74
2023/08/26 02:17:40;;;;;;;6.20;1.52;;;;;;;;;;5042141;28;20028;-74
2023/08/26 02:20:07;;;;;;;3.55;1.60;;;;;;;;;;5043613;28;20375;-74
2023/08/26 02:22:33;;;;;;;4.30;1.60;;;;;;;;;;5041900;28;20030;-78
2023/08/26 02:24:58;;;;;;;3.92;1.65;;;;;;;;;;5042543;28;20045;-80
2023/08/26 02:27:23;;;;;;;5.03;1.50;;;;;;;;;;5041556;28;20039;-74
2023/08/26 02:29:49;;;;;;;3.47;1.50;;;;;;;;;;5043580;28;20078;-75
2023/08/26 02:32:14;;;;;;;5.20;1.60;;;;;;;;;;5042728;28;20025;-81
2023/08/26 02:34:39;;;;;;;4.95;1.60;;;;;;;;;;5042405;28;20135;-74
2023/08/26 02:37:05;;;;;;;4.15;1.55;;;;;;;;;;5038565;28;20021;-75
2023/08/26 02:39:30;;;;;;;4.45;1.60;;;;;;;;;;5040708;28;20096;-75
2023/08/26 02:41:55;;;;;;;4.80;1.60;;;;;;;;;;5048735;28;20026;-74
2023/08/26 02:44:22;;;;;;;3.83;1.60;;;;;;;;;;5042001;28;20075;-74
2023/08/26 02:46:47;;;;;;;7.93;1.70;;;;;;;;;;5042756;28;20033;-77
2023/08/26 02:49:12;;;;;;;3.65;1.67;;;;;;;;;;5040632;28;20036;-78
2023/08/26 02:51:38;;;;;;;3.42;1.55;;;;;;;;;;5042539;28;20028;-79
2023/08/26 02:54:03;;;;;;;4.85;1.95;;;;;;;;;;5041609;28;20432;-83
2023/08/26 02:56:28;;;;;;;4.70;1.77;;;;;;;;;;5041562;28;20124;-82
2023/08/26 02:58:54;;;;;;;3.88;1.80;;;;;;;;;;5041938;28;20053;-80
2023/08/26 03:01:20;;;;;;;4.38;2.00;;;;;;;;;;5042418;28;20049;-80
2023/08/26 03:03:45;;;;;;;4.65;1.60;;;;;;;;;;5041419;28;20323;-74
2023/08/26 03:06:11;;;;;;;5.20;1.98;;;;;;;;;;5042064;28;20313;-74
2023/08/26 03:08:37;;;;;;;4.18;1.60;;;;;;;;;;5040534;28;20041;-81
2023/08/26 03:11:03;;;;;;;4.32;1.80;;;;;;;;;;5042349;28;20018;-74
2023/08/26 03:13:29;;;;;;;4.45;1.80;;;;;;;;;;5039966;28;20024;-75
2023/08/26 03:15:56;;;;;;;5.93;1.90;;;;;;;;;;5041156;28;20034;-74
2023/08/26 03:18:21;;;;;;;5.10;1.75;;;;;;;;;;5041574;28;20333;-74
2023/08/26 03:20:47;;;;;;;2.88;1.80;;;;;;;;;;5042744;28;20081;-83
2023/08/26 03:23:12;;;;;;;4.03;1.90;;;;;;;;;;5041538;28;20549;-74
2023/08/26 03:25:38;;;;;;;4.78;2.20;;;;;;;;;;5042536;28;20029;-81
2023/08/26 03:28:04;;;;;;;4.03;1.92;;;;;;;;;;5040330;28;20080;-82
2023/08/26 03:30:29;;;;;;;6.55;2.25;;;;;;;;;;5041410;28;20049;-74
2023/08/26 03:32:55;;;;;;;4.80;2.03;;;;;;;;;;5041416;28;20025;-74
2023/08/26 03:35:20;;;;;;;4.43;1.80;;;;;;;;;;5041830;28;20029;-74
2023/08/26 03:37:45;;;;;;;3.85;1.98;;;;;;;;;;5040600;28;20337;-82
2023/08/26 03:40:11;;;;;;;4.30;1.98;;;;;;;;;;5033753;28;20036;-81
2023/08/26 03:42:38;;;;;;;4.00;1.70;;;;;;;;;;5040828;28;20077;-78
2023/08/26 03:45:04;;;;;;;4.70;1.80;;;;;;;;;;5040402;28;20032;-82
2023/08/26 03:47:30;;;;;;;5.10;1.92;;;;;;;;;;5052294;28;20033;-74
2023/08/26 03:49:56;;;;;;;3.90;1.80;;;;;;;;;;5039058;28;20317;-75
2023/08/26 03:52:21;;;;;;;3.47;1.80;;;;;;;;;;5047775;28;20036;-76
2023/08/26 03:54:47;;;;;;;4.90;1.75;;;;;;;;;;5038873;28;20068;-80
2023/08/26 03:57:12;;;;;;;6.97;2.00;;;;;;;;;;5041386;28;20101;-77
2023/08/26 03:59:37;;;;;;;4.60;2.20;;;;;;;;;;5040039;28;20305;-74
2023/08/26 04:02:03;;;;;;;4.65;1.88;;;;;;;;;;5040217;28;20018;-74
2023/08/26 04:04:29;;;;;;;4.70;2.00;;;;;;;;;;5038690;28;20029;-74
2023/08/26 04:06:56;;;;;;;4.63;2.30;;;;;;;;;;5039879;28;20029;-74
2023/08/26 04:09:21;;;;;;;5.55;2.00;;;;;;;;;;5038033;28;20028;-78
2023/08/26 04:11:46;;;;;;;6.32;1.80;;;;;;;;;;5041013;28;20017;-74
2023/08/26 04:14:12;;;;;;;6.55;1.75;;;;;;;;;;5040215;28;20029;-76
2023/08/26 04:16:37;;;;;;;7.07;1.85;;;;;;;;;;5040958;28;20052;-74
2023/08/26 04:19:02;;;;;;;4.72;1.95;;;;;;;;;;5038850;28;20216;-74
2023/08/26 04:21:28;;;;;;;4.43;1.90;;;;;;;;;;5039928;28;20029;-74
2023/08/26 04:23:53;;;;;;;3.00;1.90;;;;;;;;;;5039881;28;20097;-74
2023/08/26 04:26:19;;;;;;;5.03;2.00;;;;;;;;;;5039719;28;20034;-73
2023/08/26 04:28:44;;;;;;;4.03;1.85;;;;;;;;;;5039071;28;20037;-74
2023/08/26 04:31:10;;;;;;;3.55;1.90;;;;;;;;;;5038827;28;20072;-74
2023/08/26 04:33:36;;;;;;;3.45;1.90;;;;;;;;;;5039728;28;20038;-74
2023/08/26 04:36:01;;;;;;;4.00;1.83;;;;;;;;;;5036159;28;20293;-76
2023/08/26 04:38:26;;;;;;;3.67;1.75;;;;;;;;;;5037988;28;20033;-81
2023/08/26 04:40:52;;;;;;;4.95;1.80;;;;;;;;;;5039940;28;20031;-73
2023/08/26 04:43:17;;;;;;;6.40;1.95;;;;;;;;;;5037331;28;20442;-73
2023/08/26 04:45:43;;;;;;;5.88;1.90;;;;;;;;;;5038063;28;20092;-74
2023/08/26 04:48:09;;;;;;;5.40;1.75;;;;;;;;;;5039146;28;20029;-75
2023/08/26 04:50:34;;;;;;;4.18;1.80;;;;;;;;;;5039503;28;20036;-74
2023/08/26 04:53:01;;;;;;;3.90;1.70;;;;;;;;;;5039993;28;20056;-78
2023/08/26 04:55:26;;;;;;;3.60;1.88;;;;;;;;;;5039425;28;20033;-80
2023/08/26 04:57:52;;;;;;;3.80;1.70;;;;;;;;;;5040682;28;20468;-74
2023/08/26 05:00:18;;;;;;;3.70;1.88;;;;;;;;;;5038048;28;20101;-76
2023/08/26 05:02:43;;;;;;;3.72;1.77;;;;;;;;;;5038962;28;20021;-75
2023/08/26 05:05:09;;;;;;;4.05;1.80;;;;;;;;;;5039827;28;20068;-80
2023/08/26 05:07:35;;;;;;;5.80;1.90;;;;;;;;;;5037816;28;20064;-73
2023/08/26 05:10:03;;;;;;;5.70;1.80;;;;;;;;;;5038242;28;20785;-76
2023/08/26 05:12:29;;;;;;;3.17;1.73;;;;;;;;;;5038942;28;20091;-82
2023/08/26 05:14:54;;;;;;;5.20;1.80;;;;;;;;;;5040294;28;20330;-73
2023/08/26 05:17:19;;;;;;;5.72;1.80;;;;;;;;;;5039653;28;20032;-79
2023/08/26 05:19:45;;;;;;;4.65;1.70;;;;;;;;;;5040283;28;20040;-73
2023/08/26 05:22:10;;;;;;;3.95;1.88;;;;;;;;;;5038468;28;20084;-73
2023/08/26 05:24:35;;;;;;;3.67;1.70;;;;;;;;;;5039066;28;20030;-73
2023/08/26 05:27:01;;;;;;;3.83;1.73;;;;;;;;;;5040344;28;20049;-73
2023/08/26 05:29:26;;;;;;;3.60;1.80;;;;;;;;;;5039935;28;20041;-79
2023/08/26 05:31:51;;;;;;;3.17;1.45;;;;;;;;;;5037741;28;20152;-73
2023/08/26 05:34:17;;;;;;;3.80;1.80;;;;;;;;;;5038490;28;20021;-74
2023/08/26 05:36:42;;;;;;;9.52;2.25;;;;;;;;;;5038631;28;20021;-73
2023/08/26 05:39:07;;;;;;;4.90;1.83;;;;;;;;;;5038251;28;20064;-80
2023/08/26 05:41:33;;;;;;;3.13;1.50;;;;;;;;;;5038167;28;20049;-73
2023/08/26 05:43:58;;;;;;;4.90;1.55;;;;;;;;;;5039746;28;20344;-73
2023/08/26 05:46:24;;;;;;;4.82;1.60;;;;;;;;;;5038896;28;20316;-73
2023/08/26 05:48:49;;;;;;;3.70;1.40;;;;;;;;;;5037594;28;20317;-81
2023/08/26 05:51:14;;;;;;;3.83;1.70;;;;;;;;;;5039099;28;20030;-74
2023/08/26 05:53:40;;;;;;;7.63;1.70;;;;;;;;;;5037724;28;20086;-73
2023/08/26 05:56:05;;;;;;;2.78;1.50;;;;;;;;;;5031860;28;20036;-73
2023/08/26 05:58:30;;;;;;;4.10;1.48;;;;;;;;;;5033918;28;20029;-73
2023/08/26 06:00:56;;;;;;;3.60;1.60;;;;;;;;;;5044965;28;20093;-74
2023/08/26 06:03:21;;;;;;;2.58;1.40;;;;;;;;;;5037280;28;20041;-76
2023/08/26 06:05:46;;;;;;;5.40;1.67;;;;;;;;;;5036659;28;20112;-73
2023/08/26 06:08:11;;;;;;;4.57;1.50;;;;;;;;;;5033025;28;20052;-74
2023/08/26 06:10:37;;;;;;;3.53;1.55;;;;;;;;;;5035069;28;20037;-76
2023/08/26 06:13:02;;;;;;;3.35;1.50;;;;;;;;;;5038850;28;20041;-73
2023/08/26 06:15:28;;;;;;;6.70;1.40;;;;;;;;;;5038592;28;20021;-73
2023/08/26 06:17:53;;;;;;;4.95;1.60;;;;;;;;;;5039398;28;20048;-73
2023/08/26 06:20:18;;;;;;;4.25;1.60;;;;;;;;;;5037501;28;20032;-80
2023/08/26 06:22:45;;;;;;;3.05;1.50;;;;;;;;;;5039024;28;20411;-78
2023/08/26 06:25:11;;;;;;;2.75;1.50;;;;;;;;;;5041209;28;20030;-74
2023/08/26 06:27:36;;;;;;;6.00;1.80;;;;;;;;;;5037000;28;20037;-81
2023/08/26 06:30:03;;;;;;;4.85;1.60;;;;;;;;;;5038288;28;20626;-78
2023/08/26 06:32:29;;;;;;;4.38;1.50;;;;;;;;;;5032164;28;20228;-73
2023/08/26 06:34:54;;;;;;;3.42;1.63;;;;;;;;;;5038272;28;20029;-82
2023/08/26 06:37:20;;;;;;;6.32;1.70;;;;;;;;;;5030368;28;20045;-81
2023/08/26 06:39:45;;;;;;;6.05;1.60;;;;;;;;;;5037906;28;20032;-79
2023/08/26 06:42:11;;;;;;;5.50;1.48;;;;;;;;;;5036598;28;20366;-78
2023/08/26 06:44:36;;;;;;;4.50;1.58;;;;;;;;;;5038470;28;20333;-73
2023/08/26 06:47:01;;;;;;;5.88;1.55;;;;;;;;;;5038940;28;20045;-80
2023/08/26 06:49:27;;;;;;;7.07;1.67;;;;;;;;;;5042794;28;20029;-73
2023/08/26 06:51:52;;;;;;;4.07;1.30;;;;;;;;;;5041459;28;20222;-81
2023/08/26 06:54:17;;;;;;;3.72;1.50;;;;;;;;;;5042930;28;20371;-78
2023/08/26 06:56:43;;;;;;;5.75;1.52;;;;;;;;;;5039930;28;20125;-78
2023/08/26 06:59:08;;;;;;;4.93;1.45;;;;;;;;;;5042434;28;20061;-80
2023/08/26 07:01:34;;;;;;;3.85;1.40;;;;;;;;;;5041793;28;20033;-78
2023/08/26 07:04:06;;;;;;;4.57;1.58;;;;;;;;;;5041654;28;20025;-77
2023/08/26 07:06:32;;;;;;;4.55;1.70;;;;;;;;;;5038538;28;20025;-79
2023/08/26 07:08:57;;;;;;;4.10;1.60;;;;;;;;;;5041454;28;20049;-74
2023/08/26 07:11:23;;;;;;;5.22;1.50;;;;;;;;;;5041711;28;20100;-79
2023/08/26 07:13:48;;;;;;;5.28;1.50;;;;;;;;;;5042294;28;20033;-81
2023/08/26 07:16:13;;;;;;;2.38;1.42;;;;;;;;;;5039529;28;20064;-77
2023/08/26 07:18:39;;;;;;;4.85;1.60;;;;;;;;;;5033237;28;20244;-73
2023/08/26 07:21:04;;;;;;;4.47;1.50;;;;;;;;;;5041213;28;20052;-81
2023/08/26 07:23:30;;;;;;;3.75;1.55;;;;;;;;;;5038640;28;20071;-73
2023/08/26 07:25:55;;;;;;;8.38;1.80;;;;;;;;;;5042098;28;20041;-74
2023/08/26 07:28:21;;;;;;;6.45;1.67;;;;;;;;;;5041383;28;20045;-78
2023/08/26 07:30:46;;;;;;;4.07;1.58;;;;;;;;;;5038176;28;20049;-79
2023/08/26 07:33:11;;;;;;;6.95;1.50;;;;;;;;;;5038951;28;20029;-74
2023/08/26 07:35:37;;;;;;;6.07;1.60;;;;;;;;;;5041402;28;20029;-73
2023/08/26 07:38:02;;;;;;;4.32;1.50;;;;;;;;;;5038035;28;20040;-78
2023/08/26 07:40:28;;;;;;;4.07;1.50;;;;;;;;;;5040374;28;20025;-76
2023/08/26 07:42:55;;;;;;;4.45;1.50;;;;;;;;;;5038735;28;20341;-80
2023/08/26 07:45:20;;;;;;;3.28;1.35;;;;;;;;;;5040723;28;20068;-78
2023/08/26 07:47:46;;;;;;;6.75;1.60;;;;;;;;;;5038800;28;20432;-75
2023/08/26 07:50:11;;;;;;;3.72;1.33;;;;;;;;;;5037722;28;20029;-74
2023/08/26 07:52:37;;;;;;;4.40;1.48;;;;;;;;;;5037090;28;20230;-77
2023/08/26 07:55:02;;;;;;;4.63;1.55;;;;;;;;;;5038484;28;20246;-74
2023/08/26 07:57:27;;;;;;;3.00;1.50;;;;;;;;;;5036806;28;20063;-73
2023/08/26 07:59:53;;;;;;;5.28;1.60;;;;;;;;;;5041414;28;20040;-75
2023/08/26 08:02:18;;;;;;;4.13;1.40;;;;;;;;;;5040323;28;20037;-74
2023/08/26 08:04:43;;;;;;;5.07;1.70;;;;;;;;;;5038629;28;20083;-73
2023/08/26 08:07:09;;;;;;;5.68;1.50;;;;;;;;;;5039633;28;20422;-73
2023/08/26 08:09:34;;;;;;;4.63;1.58;;;;;;;;;;5039122;28;20224;-75
2023/08/26 08:11:59;;;;;;;3.78;1.35;;;;;;;;;;5041388;28;20029;-73
2023/08/26 08:14:25;;;;;;;4.40;1.35;;;;;;;;;;5038776;28;20337;-78
2023/08/26 08:16:50;;;;;;;4.22;1.63;;;;;;;;;;5039115;28;20040;-74
2023/08/26 08:19:15;;;;;;;4.97;1.30;;;;;;;;;;5039022;28;20034;-79
2023/08/26 08:21:41;;;;;;;3.30;1.40;;;;;;;;;;5039491;28;20072;-76
2023/08/26 08:24:06;;;;;;;3.13;1.30;;;;;;;;;;5038608;28;20047;-73
2023/08/26 08:26:32;;;;;;;5.85;1.40;;;;;;;;;;5039611;28;20071;-75
2023/08/26 08:28:58;;;;;;;4.60;1.40;;;;;;;;;;5039389;28;20052;-74
2023/08/26 08:31:23;;;;;;;4.03;1.35;;;;;;;;;;5039681;28;20079;-77
2023/08/26 08:33:49;;;;;;;3.38;1.35;;;;;;;;;;5037624;28;20381;-74
2023/08/26 08:36:14;;;;;;;4.10;1.40;;;;;;;;;;5039617;28;20173;-75
2023/08/26 08:38:40;;;;;;;3.97;1.38;;;;;;;;;;5038400;28;20033;-83
2023/08/26 08:41:05;;;;;;;4.53;1.42;;;;;;;;;;5040753;28;20029;-81
2023/08/26 08:43:31;;;;;;;5.93;1.40;;;;;;;;;;5037964;28;20104;-74
2023/08/26 08:45:57;;;;;;;3.33;1.38;;;;;;;;;;5040294;28;20035;-76
2023/08/26 08:48:23;;;;;;;3.33;1.45;;;;;;;;;;5037757;28;20029;-82
2023/08/26 08:50:49;;;;;;;6.90;1.63;;;;;;;;;;5039015;28;20090;-74
2023/08/26 08:53:21;;;;;;;5.70;1.60;;;;;;;;;;5038307;28;20040;-77
2023/08/26 08:55:46;;;;;;;5.85;1.70;;;;;;;;;;5034295;28;20039;-75
2023/08/26 08:58:13;;;;;;;6.72;1.73;;;;;;;;;;5039022;28;20049;-74
2023/08/26 09:00:39;;;;;;;5.82;1.83;;;;;;;;;;5035350;28;20029;-75
2023/08/26 09:03:08;;;;;;;5.53;1.50;;;;;;;;;;5040218;28;20145;-74
2023/08/26 09:05:33;;;;;;;2.90;1.40;;;;;;;;;;5038351;28;20025;-83
2023/08/26 09:07:59;;;;;;;4.53;1.63;;;;;;;;;;5033540;28;20044;-73
2023/08/26 09:10:25;;;;;;;4.00;1.50;;;;;;;;;;5030687;28;20101;-74
2023/08/26 09:12:51;;;;;;;5.68;1.50;;;;;;;;;;5032283;28;20151;-74
2023/08/26 09:15:16;;;;;;;4.25;1.50;;;;;;;;;;5029572;28;20882;-74
2023/08/26 09:17:46;;;;;;;4.40;1.50;;;;;;;;;;5030914;28;20037;-75
2023/08/26 09:20:11;;;;;;;5.25;1.70;;;;;;;;;;5028245;28;20025;-73
2023/08/26 09:22:37;;;;;;;2.88;1.30;;;;;;;;;;5027483;28;20091;-73
2023/08/26 09:25:04;;;;;;;2.55;1.23;;;;;;;;;;5028279;28;20037;-74
2023/08/26 09:27:34;;;;;;;4.15;1.23;;;;;;;;;;5031248;28;20036;-74
2023/08/26 09:30:01;;;;;;;4.28;1.50;;;;;;;;;;5030334;28;20041;-73
2023/08/26 09:32:36;;;;;;;4.43;1.40;;;;;;;;;;5027574;28;20033;-73
2023/08/26 09:35:12;;;;;;;4.25;1.20;;;;;;;;;;5032375;28;20139;-74
2023/08/26 09:37:39;;;;;;;3.03;1.30;;;;;;;;;;5028971;28;20345;-74
2023/08/26 09:40:05;;;;;;;6.65;1.17;;;;;;;;;;5031673;28;20780;-74
2023/08/26 09:42:31;;;;;;;3.95;1.40;;;;;;;;;;5031730;28;20081;-74
2023/08/26 09:44:57;;;;;;;5.05;1.80;;;;;;;;;;5032476;28;20092;-74
2023/08/26 09:47:27;;;;;;;5.05;1.48;;;;;;;;;;5028901;28;20034;-73
2023/08/26 09:49:53;;;;;;;4.60;1.40;;;;;;;;;;5028888;28;20101;-73
2023/08/26 09:52:19;;;;;;;6.82;1.40;;;;;;;;;;5027894;28;20218;-74
2023/08/26 09:54:46;;;;;;;3.13;1.40;;;;;;;;;;5027634;28;20033;-74
2023/08/26 09:57:11;;;;;;;3.55;1.40;;;;;;;;;;5029600;28;20037;-73
2023/08/26 09:59:37;;;;;;;4.05;1.50;;;;;;;;;;5027024;28;20043;-73
2023/08/26 10:02:08;;;;;;;2.00;1.20;;;;;;;;;;5030985;28;20049;-74
2023/08/26 10:04:36;;;;;;;2.55;1.30;;;;;;;;;;5023731;28;20087;-74
2023/08/26 10:07:02;;;;;;;4.55;1.50;;;;;;;;;;5028169;28;20408;-74
2023/08/26 10:09:37;;;;;;;4.20;1.50;;;;;;;;;;5032139;28;20041;-74
2023/08/26 10:12:06;;;;;;;3.22;1.27;;;;;;;;;;5029473;28;20029;-73
2023/08/26 10:14:33;;;;;;;4.55;1.40;;;;;;;;;;5038211;28;20041;-74
2023/08/26 10:17:02;;;;;;;7.75;1.73;;;;;;;;;;5039000;28;20033;-73
2023/08/26 10:19:28;;;;;;;3.67;1.60;;;;;;;;;;5036960;28;20071;-73
2023/08/26 10:21:55;;;;;;;4.30;1.70;;;;;;;;;;5036589;28;20122;-74
2023/08/26 10:24:20;;;;;;;5.60;1.67;;;;;;;;;;5034420;28;20033;-76
2023/08/26 10:26:46;;;;;;;5.03;1.60;;;;;;;;;;5037202;28;20439;-73
2023/08/26 10:29:12;;;;;;;4.70;1.58;;;;;;;;;;5037196;28;20099;-74
2023/08/26 10:31:39;;;;;;;4.18;1.48;;;;;;;;;;5041328;28;20132;-73
2023/08/26 10:34:07;;;;;;;3.85;1.48;;;;;;;;;;5038874;28;20098;-74
2023/08/26 10:36:34;;;;;;;5.45;1.73;;;;;;;;;;5034210;28;20351;-76
2023/08/26 10:38:59;;;;;;;3.30;1.40;;;;;;;;;;5038682;28;20037;-73
2023/08/26 10:41:25;;;;;;;2.42;1.50;;;;;;;;;;5040580;28;20040;-72
2023/08/26 10:44:01;;;;;;;3.05;1.60;;;;;;;;;;5040231;28;20025;-73
2023/08/26 10:46:54;;;;;;;2.95;1.50;;;;;;;;;;5034210;28;20045;-74
2023/08/26 10:49:22;;;;;;;4.60;1.50;;;;;;;;;;5038819;28;20332;-74
2023/08/26 10:51:48;;;;;;;3.03;1.42;;;;;;;;;;5027532;28;20211;-73
2023/08/26 10:54:13;;;;;;;4.70;1.40;;;;;;;;;;5027352;28;20803;-74
2023/08/26 10:56:40;;;;;;;3.33;1.45;;;;;;;;;;5033291;28;20849;-74
2023/08/26 10:59:06;;;;;;;5.75;1.75;;;;;;;;;;5030031;28;20033;-76
2023/08/26 11:01:35;;;;;;;2.88;1.50;;;;;;;;;;5026550;28;20048;-77
2023/08/26 11:04:03;;;;;;;4.65;1.50;;;;;;;;;;5028758;28;20104;-74
2023/08/26 11:06:35;;;;;;;3.20;1.50;;;;;;;;;;5033436;28;20017;-74
2023/08/26 11:09:01;;;;;;;2.90;1.30;;;;;;;;;;5034912;28;21308;-75
2023/08/26 11:11:26;;;;;;;3.88;1.42;;;;;;;;;;5041974;28;20033;-73
2023/08/26 11:13:52;;;;;;;2.83;1.20;;;;;;;;;;5039823;28;20026;-76
2023/08/26 11:16:19;;;;;;;2.35;1.20;;;;;;;;;;5034064;28;20084;-73
2023/08/26 11:18:44;;;;;;;2.50;1.40;;;;;;;;;;5032903;28;20025;-75
2023/08/26 11:21:10;;;;;;;3.42;1.50;;;;;;;;;;5034368;28;20304;-78
2023/08/26 11:23:35;;;;;;;2.53;1.40;;;;;;;;;;5031984;28;20037;-74
2023/08/26 11:26:05;;;;;;;2.55;1.30;;;;;;;;;;5030939;28;20036;-77
2023/08/26 11:28:31;;;;;;;2.88;1.50;;;;;;;;;;5030726;28;20117;-79
2023/08/26 11:30:56;;;;;;;3.38;1.40;;;;;;;;;;5030509;28;20557;-70
2023/08/26 11:33:22;;;;;;;3.58;1.40;;;;;;;;;;5030383;28;20037;-72
2023/08/26 11:35:48;;;;;;;4.00;1.40;;;;;;;;;;5029916;28;20029;-73
2023/08/26 11:38:15;;;;;;;3.13;1.38;;;;;;;;;;5030340;28;20045;-72
2023/08/26 11:40:41;;;;;;;3.55;1.50;;;;;;;;;;5030825;28;20030;-73
2023/08/26 11:43:07;;;;;;;3.83;1.60;;;;;;;;;;5025641;28;20069;-72
2023/08/26 11:45:34;;;;;;;2.78;1.40;;;;;;;;;;5030310;28;20100;-72
2023/08/26 11:48:00;;;;;;;5.07;1.45;;;;;;;;;;5030413;28;20627;-71
2023/08/26 11:50:27;;;;;;;3.05;1.30;;;;;;;;;;5033149;28;20078;-72
2023/08/26 11:52:54;;;;;;;2.63;1.25;;;;;;;;;;5030480;28;20022;-72
2023/08/26 11:55:19;;;;;;;4.35;1.40;;;;;;;;;;5036100;28;20034;-77
2023/08/26 11:57:48;;;;;;;3.70;1.35;;;;;;;;;;5035321;28;20041;-73
2023/08/26 12:00:16;;;;;;;3.45;1.40;;;;;;;;;;5030637;28;20030;-76
2023/08/26 12:02:49;;;;;;;3.75;1.42;;;;;;;;;;5029597;28;20059;-73
2023/08/26 12:05:15;;;;;;;4.72;1.60;;;;;;;;;;5029978;28;20071;-73
2023/08/26 12:07:45;;;;;;;3.38;1.30;;;;;;;;;;5030251;28;20524;-73
2023/08/26 12:10:12;;;;;;;2.95;1.30;;;;;;;;;;5029715;28;20025;-73
2023/08/26 12:12:38;;;;;;;4.00;1.30;;;;;;;;;;5030056;28;20022;-72
2023/08/26 12:15:08;;;;;;;5.28;1.20;;;;;;;;;;5030096;28;20017;-72
2023/08/26 12:17:46;;;;;;;3.95;1.27;;;;;;;;;;5029732;28;20124;-73
2023/08/26 12:20:25;;;;;;;3.60;1.27;;;;;;;;;;5029926;28;20044;-73
2023/08/26 12:22:55;;;;;;;4.18;1.30;;;;;;;;;;5017058;28;20017;-73
2023/08/26 12:25:23;;;;;;;4.03;1.20;;;;;;;;;;5024165;28;20041;-72
2023/08/26 12:27:48;;;;;;;3.50;1.10;;;;;;;;;;5029072;28;20045;-73
2023/08/26 12:30:14;;;;;;;5.30;1.20;;;;;;;;;;5029196;28;20097;-73
2023/08/26 12:32:39;;;;;;;2.78;1.08;;;;;;;;;;5029918;28;20120;-73
2023/08/26 12:35:06;;;;;;;4.60;1.20;;;;;;;;;;5029413;28;20091;-73
2023/08/26 12:37:32;;;;;;;3.08;1.10;;;;;;;;;;5028645;28;20136;-73
2023/08/26 12:39:59;;;;;;;3.33;1.30;;;;;;;;;;5029664;28;20025;-73
2023/08/26 12:42:25;;;;;;;3.05;1.20;;;;;;;;;;5027981;28;20042;-73
2023/08/26 12:44:54;;;;;;;2.60;1.15;;;;;;;;;;5029370;28;20513;-73
2023/08/26 12:47:19;;;;;;;2.55;1.10;;;;;;;;;;5028958;28;20571;-73
2023/08/26 12:49:45;;;;;;;3.35;1.20;;;;;;;;;;5029148;28;20033;-73
2023/08/26 12:52:10;;;;;;;2.25;1.20;;;;;;;;;;5028761;28;20026;-73
2023/08/26 12:54:35;;;;;;;2.25;1.13;;;;;;;;;;5028735;28;20373;-72
2023/08/26 12:57:01;;;;;;;2.72;1.17;;;;;;;;;;5028993;28;20080;-73
2023/08/26 12:59:26;;;;;;;5.78;1.38;;;;;;;;;;5029294;28;20030;-73
2023/08/26 13:01:51;;;;;;;2.38;1.00;;;;;;;;;;5029177;28;20065;-73
2023/08/26 13:04:17;;;;;;;2.60;1.13;;;;;;;;;;5029035;28;20038;-73
2023/08/26 13:06:42;;;;;;;2.25;1.13;;;;;;;;;;5024918;28;20075;-74
2023/08/26 13:09:07;;;;;;;2.63;1.00;;;;;;;;;;5027059;28;20087;-74
2023/08/26 13:11:33;;;;;;;2.45;1.13;;;;;;;;;;5028313;28;20041;-72
2023/08/26 13:13:58;;;;;;;2.63;1.08;;;;;;;;;;5028138;28;20055;-73
2023/08/26 13:16:23;;;;;;;4.15;1.42;;;;;;;;;;5028636;28;20038;-72
2023/08/26 13:18:48;;;;;;;2.38;1.27;;;;;;;;;;5027803;28;20087;-72
2023/08/26 13:21:14;;;;;;;3.13;1.10;;;;;;;;;;5029169;28;20037;-73
2023/08/26 13:23:39;;;;;;;6.03;1.20;;;;;;;;;;5028325;28;20022;-74
2023/08/26 13:26:04;;;;;;;4.65;1.42;;;;;;;;;;5029003;28;20017;-73
2023/08/26 13:28:30;;;;;;;3.10;1.13;;;;;;;;;;5029012;28;20044;-73
2023/08/26 13:30:56;;;;;;;3.28;1.38;;;;;;;;;;5029288;28;20020;-73
2023/08/26 13:33:22;;;;;;;2.75;1.13;;;;;;;;;;5028095;28;20600;-74
2023/08/26 13:35:47;;;;;;;3.45;1.20;;;;;;;;;;5028609;28;20076;-73
2023/08/26 13:38:12;;;;;;;2.50;1.10;;;;;;;;;;5028471;28;20057;-73
2023/08/26 13:40:38;;;;;;;3.10;1.23;;;;;;;;;;5028773;28;20410;-73
2023/08/26 13:43:03;;;;;;;3.40;1.20;;;;;;;;;;5028396;28;20041;-73
2023/08/26 13:45:29;;;;;;;3.15;1.02;;;;;;;;;;5028506;28;20543;-73
2023/08/26 13:47:54;;;;;;;1.95;0.98;;;;;;;;;;5028484;28;20513;-72
2023/08/26 13:50:19;;;;;;;2.90;1.27;;;;;;;;;;5028147;28;20033;-76
2023/08/26 13:52:45;;;;;;;2.70;1.20;;;;;;;;;;5032775;28;20666;-74
2023/08/26 13:55:10;;;;;;;2.47;1.10;;;;;;;;;;5029394;28;20033;-72
2023/08/26 13:57:36;;;;;;;3.13;1.30;;;;;;;;;;5033638;28;20120;-73
2023/08/26 14:00:02;;;;;;;3.83;1.10;;;;;;;;;;5035071;28;20021;-73
2023/08/26 14:02:28;;;;;;;2.95;1.20;;;;;;;;;;5039720;28;20014;-71
2023/08/26 14:04:54;;;;;;;3.00;1.23;;;;;;;;;;5031363;28;20029;-71
2023/08/26 14:07:19;;;;;;;2.88;1.20;;;;;;;;;;5031375;28;20116;-71
2023/08/26 14:09:44;;;;;;;8.23;1.35;;;;;;;;;;5029795;28;20022;-70
2023/08/26 14:12:10;;;;;;;3.80;1.30;;;;;;;;;;5030965;28;20029;-70
2023/08/26 14:17:19;;;;;;;2.85;1.30;;;;;;;;;;5085149;28;20447;-70
2023/08/26 14:22:10;;;;;;;4.03;1.25;;;;;;;;;;5065628;28;20949;-70
2023/08/26 14:24:36;;;;;;;7.35;1.30;;;;;;;;;;5052925;28;20028;-70
2023/08/26 14:29:06;;;;;;;4.28;1.10;;;;;;;;;;5090307;28;20398;-70
2023/08/26 14:31:31;;;;;;;3.13;1.00;;;;;;;;;;5079048;28;20070;-70
2023/08/26 14:33:56;;;;;;;1.67;1.00;;;;;;;;;;5088390;28;20051;-69
2023/08/26 14:36:22;;;;;;;3.03;1.30;;;;;;;;;;5075484;28;20031;-70
2023/08/26 14:38:47;;;;;;;3.88;1.40;;;;;;;;;;5094601;28;20074;-69
2023/08/26 14:41:12;;;;;;;4.10;1.10;;;;;;;;;;5087226;28;20107;-70
2023/08/26 14:43:39;;;;;;;3.28;1.30;;;;;;;;;;5076353;28;20504;-72